sensor_id;sensor_type;location;lat;lon;timestamp;temperature;humidity
61021;DHT22;66055;43.496;3.710;2022-12-29T00:02:08;10.60;84.40
61021;DHT22;66055;43.496;3.710;2022-12-29T00:04:34;10.50;84.70
61021;DHT22;66055;43.496;3.710;2022-12-29T00:07:00;10.50;84.80
61021;DHT22;66055;43.496;3.710;2022-12-29T00:09:26;10.50;84.90
61021;DHT22;66055;43.496;3.710;2022-12-29T00:11:52;10.40;85.00
61021;DHT22;66055;43.496;3.710;2022-12-29T00:14:18;10.40;85.00
61021;DHT22;66055;43.496;3.710;2022-12-29T00:17:02;10.30;85.00
61021;DHT22;66055;43.496;3.710;2022-12-29T00:19:28;10.30;84.90
61021;DHT22;66055;43.496;3.710;2022-12-29T00:22:13;10.30;85.30
61021;DHT22;66055;43.496;3.710;2022-12-29T00:24:58;10.30;85.30
61021;DHT22;66055;43.496;3.710;2022-12-29T00:27:31;10.30;85.10
61021;DHT22;66055;43.496;3.710;2022-12-29T00:30:17;10.30;84.90
61021;DHT22;66055;43.496;3.710;2022-12-29T00:33:16;10.30;85.10
61021;DHT22;66055;43.496;3.710;2022-12-29T00:38:38;10.30;85.10
61021;DHT22;66055;43.496;3.710;2022-12-29T00:41:23;10.30;85.10
61021;DHT22;66055;43.496;3.710;2022-12-29T00:44:08;10.30;85.10
61021;DHT22;66055;43.496;3.710;2022-12-29T00:46:39;10.40;85.10
61021;DHT22;66055;43.496;3.710;2022-12-29T00:49:06;10.30;85.00
61021;DHT22;66055;43.496;3.710;2022-12-29T00:51:51;10.20;85.00
61021;DHT22;66055;43.496;3.710;2022-12-29T00:54:17;10.20;85.30
61021;DHT22;66055;43.496;3.710;2022-12-29T00:56:45;10.10;85.30
61021;DHT22;66055;43.496;3.710;2022-12-29T00:59:11;10.10;85.70
61021;DHT22;66055;43.496;3.710;2022-12-29T01:01:37;10.10;85.70
61021;DHT22;66055;43.496;3.710;2022-12-29T01:04:03;10.20;85.60
61021;DHT22;66055;43.496;3.710;2022-12-29T01:06:29;10.20;85.50
61021;DHT22;66055;43.496;3.710;2022-12-29T01:08:54;10.20;85.50
61021;DHT22;66055;43.496;3.710;2022-12-29T01:11:39;10.20;85.40
61021;DHT22;66055;43.496;3.710;2022-12-29T01:14:05;10.30;85.30
61021;DHT22;66055;43.496;3.710;2022-12-29T01:16:31;10.30;85.30
61021;DHT22;66055;43.496;3.710;2022-12-29T01:18:57;10.30;85.10
61021;DHT22;66055;43.496;3.710;2022-12-29T01:21:23;10.40;85.10
61021;DHT22;66055;43.496;3.710;2022-12-29T01:23:48;10.40;85.00
61021;DHT22;66055;43.496;3.710;2022-12-29T01:26:16;10.40;85.00
61021;DHT22;66055;43.496;3.710;2022-12-29T01:28:42;10.40;85.20
61021;DHT22;66055;43.496;3.710;2022-12-29T01:31:09;10.40;85.20
61021;DHT22;66055;43.496;3.710;2022-12-29T01:33:34;10.40;85.20
61021;DHT22;66055;43.496;3.710;2022-12-29T01:36:05;10.40;85.10
61021;DHT22;66055;43.496;3.710;2022-12-29T01:38:31;10.40;85.00
61021;DHT22;66055;43.496;3.710;2022-12-29T01:40:57;10.40;85.00
61021;DHT22;66055;43.496;3.710;2022-12-29T01:43:43;10.30;85.10
61021;DHT22;66055;43.496;3.710;2022-12-29T01:51:45;10.30;85.70
61021;DHT22;66055;43.496;3.710;2022-12-29T01:54:20;10.30;85.60
61021;DHT22;66055;43.496;3.710;2022-12-29T01:56:48;10.40;85.60
61021;DHT22;66055;43.496;3.710;2022-12-29T01:59:20;10.50;85.40
61021;DHT22;66055;43.496;3.710;2022-12-29T02:01:46;10.50;85.30
61021;DHT22;66055;43.496;3.710;2022-12-29T02:04:13;10.60;85.20
61021;DHT22;66055;43.496;3.710;2022-12-29T02:06:43;10.60;85.00
61021;DHT22;66055;43.496;3.710;2022-12-29T02:09:11;10.60;85.00
61021;DHT22;66055;43.496;3.710;2022-12-29T02:11:38;10.70;84.90
61021;DHT22;66055;43.496;3.710;2022-12-29T02:14:12;10.60;84.90
61021;DHT22;66055;43.496;3.710;2022-12-29T02:22:34;10.60;85.00
61021;DHT22;66055;43.496;3.710;2022-12-29T02:30:38;10.50;85.20
61021;DHT22;66055;43.496;3.710;2022-12-29T02:33:33;10.50;85.20
61021;DHT22;66055;43.496;3.710;2022-12-29T02:46:34;10.60;85.50
61021;DHT22;66055;43.496;3.710;2022-12-29T02:52:20;10.60;85.70
61021;DHT22;66055;43.496;3.710;2022-12-29T02:54:49;10.60;85.80
61021;DHT22;66055;43.496;3.710;2022-12-29T02:57:36;10.60;85.80
61021;DHT22;66055;43.496;3.710;2022-12-29T03:00:08;10.60;85.60
61021;DHT22;66055;43.496;3.710;2022-12-29T03:02:39;10.60;85.80
61021;DHT22;66055;43.496;3.710;2022-12-29T03:08:13;10.70;85.70
61021;DHT22;66055;43.496;3.710;2022-12-29T03:16:33;10.70;85.50
61021;DHT22;66055;43.496;3.710;2022-12-29T03:21:38;10.70;85.70
61021;DHT22;66055;43.496;3.710;2022-12-29T03:24:27;10.70;85.80
61021;DHT22;66055;43.496;3.710;2022-12-29T03:26:58;10.70;85.80
61021;DHT22;66055;43.496;3.710;2022-12-29T03:29:27;10.70;85.70
61021;DHT22;66055;43.496;3.710;2022-12-29T03:31:54;10.70;85.70
61021;DHT22;66055;43.496;3.710;2022-12-29T03:34:21;10.70;85.80
61021;DHT22;66055;43.496;3.710;2022-12-29T03:37:07;10.70;85.70
61021;DHT22;66055;43.496;3.710;2022-12-29T03:39:35;10.70;85.60
61021;DHT22;66055;43.496;3.710;2022-12-29T03:42:05;10.70;85.20
61021;DHT22;66055;43.496;3.710;2022-12-29T03:44:35;10.80;85.30
61021;DHT22;66055;43.496;3.710;2022-12-29T03:47:02;10.70;85.50
61021;DHT22;66055;43.496;3.710;2022-12-29T03:49:27;10.80;85.60
61021;DHT22;66055;43.496;3.710;2022-12-29T03:51:53;10.80;85.70
61021;DHT22;66055;43.496;3.710;2022-12-29T03:54:19;10.80;85.70
61021;DHT22;66055;43.496;3.710;2022-12-29T03:56:45;10.80;85.70
61021;DHT22;66055;43.496;3.710;2022-12-29T03:59:10;10.80;85.70
61021;DHT22;66055;43.496;3.710;2022-12-29T04:01:36;10.70;85.80
61021;DHT22;66055;43.496;3.710;2022-12-29T04:04:02;10.80;85.80
61021;DHT22;66055;43.496;3.710;2022-12-29T04:06:27;10.70;85.80
61021;DHT22;66055;43.496;3.710;2022-12-29T04:08:53;10.80;85.80
61021;DHT22;66055;43.496;3.710;2022-12-29T04:11:19;10.80;85.50
61021;DHT22;66055;43.496;3.710;2022-12-29T04:13:45;10.80;85.80
61021;DHT22;66055;43.496;3.710;2022-12-29T04:16:10;10.80;85.70
61021;DHT22;66055;43.496;3.710;2022-12-29T04:18:36;10.80;85.60
61021;DHT22;66055;43.496;3.710;2022-12-29T04:21:02;10.80;85.40
61021;DHT22;66055;43.496;3.710;2022-12-29T04:23:33;10.80;85.20
61021;DHT22;66055;43.496;3.710;2022-12-29T04:25:59;10.80;85.40
61021;DHT22;66055;43.496;3.710;2022-12-29T04:28:25;10.80;85.50
61021;DHT22;66055;43.496;3.710;2022-12-29T04:30:51;10.80;85.40
61021;DHT22;66055;43.496;3.710;2022-12-29T04:33:17;10.90;85.40
61021;DHT22;66055;43.496;3.710;2022-12-29T04:35:43;10.80;85.30
61021;DHT22;66055;43.496;3.710;2022-12-29T04:38:09;10.80;85.20
61021;DHT22;66055;43.496;3.710;2022-12-29T04:40:35;10.80;85.30
61021;DHT22;66055;43.496;3.710;2022-12-29T04:43:03;10.80;85.30
61021;DHT22;66055;43.496;3.710;2022-12-29T04:45:28;10.80;85.20
61021;DHT22;66055;43.496;3.710;2022-12-29T04:47:54;10.80;85.30
61021;DHT22;66055;43.496;3.710;2022-12-29T04:50:20;10.80;85.40
61021;DHT22;66055;43.496;3.710;2022-12-29T04:52:45;10.70;85.50
61021;DHT22;66055;43.496;3.710;2022-12-29T04:55:11;10.70;85.40
61021;DHT22;66055;43.496;3.710;2022-12-29T04:57:37;10.70;85.40
61021;DHT22;66055;43.496;3.710;2022-12-29T05:00:03;10.70;85.50
61021;DHT22;66055;43.496;3.710;2022-12-29T05:02:29;10.70;85.60
61021;DHT22;66055;43.496;3.710;2022-12-29T05:04:55;10.70;85.90
61021;DHT22;66055;43.496;3.710;2022-12-29T05:07:21;10.80;85.80
61021;DHT22;66055;43.496;3.710;2022-12-29T05:09:46;10.80;85.50
61021;DHT22;66055;43.496;3.710;2022-12-29T05:12:12;10.80;85.50
61021;DHT22;66055;43.496;3.710;2022-12-29T05:14:38;10.80;85.40
61021;DHT22;66055;43.496;3.710;2022-12-29T05:17:03;10.80;85.50
61021;DHT22;66055;43.496;3.710;2022-12-29T05:19:29;10.80;85.20
61021;DHT22;66055;43.496;3.710;2022-12-29T05:21:55;10.80;85.00
61021;DHT22;66055;43.496;3.710;2022-12-29T05:24:21;10.80;85.10
61021;DHT22;66055;43.496;3.710;2022-12-29T05:26:46;10.80;85.10
61021;DHT22;66055;43.496;3.710;2022-12-29T05:29:12;10.80;85.30
61021;DHT22;66055;43.496;3.710;2022-12-29T05:31:38;10.90;85.10
61021;DHT22;66055;43.496;3.710;2022-12-29T05:34:03;10.80;85.30
61021;DHT22;66055;43.496;3.710;2022-12-29T05:36:29;10.90;85.00
61021;DHT22;66055;43.496;3.710;2022-12-29T05:38:55;10.90;85.00
61021;DHT22;66055;43.496;3.710;2022-12-29T05:41:20;10.90;84.80
61021;DHT22;66055;43.496;3.710;2022-12-29T05:43:46;10.90;85.10
61021;DHT22;66055;43.496;3.710;2022-12-29T05:46:12;10.90;85.40
61021;DHT22;66055;43.496;3.710;2022-12-29T05:48:37;10.90;85.50
61021;DHT22;66055;43.496;3.710;2022-12-29T05:51:03;10.90;85.30
61021;DHT22;66055;43.496;3.710;2022-12-29T05:53:29;10.90;85.20
61021;DHT22;66055;43.496;3.710;2022-12-29T05:55:54;10.90;85.10
61021;DHT22;66055;43.496;3.710;2022-12-29T05:58:20;10.90;85.40
61021;DHT22;66055;43.496;3.710;2022-12-29T06:00:46;10.90;85.50
61021;DHT22;66055;43.496;3.710;2022-12-29T06:03:11;10.90;85.50
61021;DHT22;66055;43.496;3.710;2022-12-29T06:05:37;10.90;84.90
61021;DHT22;66055;43.496;3.710;2022-12-29T06:08:03;10.90;84.90
61021;DHT22;66055;43.496;3.710;2022-12-29T06:10:29;10.90;85.10
61021;DHT22;66055;43.496;3.710;2022-12-29T06:12:54;10.90;84.70
61021;DHT22;66055;43.496;3.710;2022-12-29T06:15:20;11.00;84.40
61021;DHT22;66055;43.496;3.710;2022-12-29T06:17:46;11.00;84.60
61021;DHT22;66055;43.496;3.710;2022-12-29T06:20:11;11.00;84.60
61021;DHT22;66055;43.496;3.710;2022-12-29T06:22:37;11.00;85.10
61021;DHT22;66055;43.496;3.710;2022-12-29T06:25:03;11.00;85.10
61021;DHT22;66055;43.496;3.710;2022-12-29T06:27:31;11.00;85.00
61021;DHT22;66055;43.496;3.710;2022-12-29T06:29:56;11.00;84.90
61021;DHT22;66055;43.496;3.710;2022-12-29T06:32:22;11.00;85.10
61021;DHT22;66055;43.496;3.710;2022-12-29T06:34:48;11.00;85.40
61021;DHT22;66055;43.496;3.710;2022-12-29T06:37:13;11.00;85.50
61021;DHT22;66055;43.496;3.710;2022-12-29T06:39:40;11.00;85.00
61021;DHT22;66055;43.496;3.710;2022-12-29T06:42:06;11.00;85.30
61021;DHT22;66055;43.496;3.710;2022-12-29T06:44:31;11.00;85.40
61021;DHT22;66055;43.496;3.710;2022-12-29T06:46:57;11.00;85.60
61021;DHT22;66055;43.496;3.710;2022-12-29T06:49:23;10.90;85.60
61021;DHT22;66055;43.496;3.710;2022-12-29T06:51:48;11.00;85.50
61021;DHT22;66055;43.496;3.710;2022-12-29T06:54:15;11.00;85.40
61021;DHT22;66055;43.496;3.710;2022-12-29T06:56:40;11.00;85.40
61021;DHT22;66055;43.496;3.710;2022-12-29T06:59:06;10.90;85.40
61021;DHT22;66055;43.496;3.710;2022-12-29T07:01:32;10.90;85.40
61021;DHT22;66055;43.496;3.710;2022-12-29T07:03:57;10.90;85.60
61021;DHT22;66055;43.496;3.710;2022-12-29T07:06:23;10.90;85.50
61021;DHT22;66055;43.496;3.710;2022-12-29T07:08:49;10.90;85.40
61021;DHT22;66055;43.496;3.710;2022-12-29T07:11:15;10.90;85.50
61021;DHT22;66055;43.496;3.710;2022-12-29T07:13:41;11.00;85.30
61021;DHT22;66055;43.496;3.710;2022-12-29T07:16:08;11.00;85.20
61021;DHT22;66055;43.496;3.710;2022-12-29T07:18:34;11.00;85.40
61021;DHT22;66055;43.496;3.710;2022-12-29T07:21:00;11.00;85.50
61021;DHT22;66055;43.496;3.710;2022-12-29T07:23:25;11.00;85.60
61021;DHT22;66055;43.496;3.710;2022-12-29T07:26:02;11.10;85.60
61021;DHT22;66055;43.496;3.710;2022-12-29T07:28:28;11.10;85.40
61021;DHT22;66055;43.496;3.710;2022-12-29T07:30:53;11.10;85.20
61021;DHT22;66055;43.496;3.710;2022-12-29T07:33:19;11.10;84.90
61021;DHT22;66055;43.496;3.710;2022-12-29T07:35:45;11.10;84.80
61021;DHT22;66055;43.496;3.710;2022-12-29T07:38:10;11.10;84.80
61021;DHT22;66055;43.496;3.710;2022-12-29T07:40:36;11.10;84.80
61021;DHT22;66055;43.496;3.710;2022-12-29T07:43:02;11.00;84.90
61021;DHT22;66055;43.496;3.710;2022-12-29T07:45:29;11.00;84.90
61021;DHT22;66055;43.496;3.710;2022-12-29T07:47:55;11.00;84.90
61021;DHT22;66055;43.496;3.710;2022-12-29T07:50:21;11.00;84.80
61021;DHT22;66055;43.496;3.710;2022-12-29T07:52:46;11.00;85.00
61021;DHT22;66055;43.496;3.710;2022-12-29T07:55:14;11.00;85.10
61021;DHT22;66055;43.496;3.710;2022-12-29T07:57:39;11.00;85.00
61021;DHT22;66055;43.496;3.710;2022-12-29T08:00:06;11.00;85.40
61021;DHT22;66055;43.496;3.710;2022-12-29T08:02:31;11.00;85.40
61021;DHT22;66055;43.496;3.710;2022-12-29T08:04:57;11.00;85.40
61021;DHT22;66055;43.496;3.710;2022-12-29T08:07:23;11.10;85.30
61021;DHT22;66055;43.496;3.710;2022-12-29T08:09:48;11.00;85.20
61021;DHT22;66055;43.496;3.710;2022-12-29T08:12:14;11.10;85.00
61021;DHT22;66055;43.496;3.710;2022-12-29T08:14:40;11.10;85.10
61021;DHT22;66055;43.496;3.710;2022-12-29T08:17:05;11.10;85.20
61021;DHT22;66055;43.496;3.710;2022-12-29T08:19:31;11.20;85.40
61021;DHT22;66055;43.496;3.710;2022-12-29T08:21:57;11.20;85.40
61021;DHT22;66055;43.496;3.710;2022-12-29T08:24:22;11.20;85.40
61021;DHT22;66055;43.496;3.710;2022-12-29T08:26:48;11.20;85.40
61021;DHT22;66055;43.496;3.710;2022-12-29T08:29:14;11.20;85.40
61021;DHT22;66055;43.496;3.710;2022-12-29T08:31:39;11.30;85.10
61021;DHT22;66055;43.496;3.710;2022-12-29T08:34:05;11.30;84.80
61021;DHT22;66055;43.496;3.710;2022-12-29T08:36:31;11.30;84.90
61021;DHT22;66055;43.496;3.710;2022-12-29T08:38:57;11.30;85.00
61021;DHT22;66055;43.496;3.710;2022-12-29T08:41:23;11.40;85.10
61021;DHT22;66055;43.496;3.710;2022-12-29T08:43:49;11.40;85.00
61021;DHT22;66055;43.496;3.710;2022-12-29T08:46:15;11.40;84.70
61021;DHT22;66055;43.496;3.710;2022-12-29T08:48:41;11.50;84.90
61021;DHT22;66055;43.496;3.710;2022-12-29T08:51:07;11.50;85.00
61021;DHT22;66055;43.496;3.710;2022-12-29T08:53:33;11.50;84.90
61021;DHT22;66055;43.496;3.710;2022-12-29T08:56:00;11.60;84.80
61021;DHT22;66055;43.496;3.710;2022-12-29T08:58:26;11.60;84.40
61021;DHT22;66055;43.496;3.710;2022-12-29T09:00:53;11.70;84.60
61021;DHT22;66055;43.496;3.710;2022-12-29T09:03:19;11.70;84.20
61021;DHT22;66055;43.496;3.710;2022-12-29T09:05:47;11.80;84.30
61021;DHT22;66055;43.496;3.710;2022-12-29T09:08:13;11.80;84.10
61021;DHT22;66055;43.496;3.710;2022-12-29T09:10:38;11.80;83.80
61021;DHT22;66055;43.496;3.710;2022-12-29T09:13:04;11.90;83.70
61021;DHT22;66055;43.496;3.710;2022-12-29T09:15:30;11.90;83.70
61021;DHT22;66055;43.496;3.710;2022-12-29T09:17:55;11.90;83.40
61021;DHT22;66055;43.496;3.710;2022-12-29T09:20:21;12.00;83.30
61021;DHT22;66055;43.496;3.710;2022-12-29T09:22:47;12.00;83.40
61021;DHT22;66055;43.496;3.710;2022-12-29T09:25:13;12.10;83.30
61021;DHT22;66055;43.496;3.710;2022-12-29T09:27:39;12.00;82.90
61021;DHT22;66055;43.496;3.710;2022-12-29T09:30:06;12.00;83.00
61021;DHT22;66055;43.496;3.710;2022-12-29T09:32:32;12.00;82.90
61021;DHT22;66055;43.496;3.710;2022-12-29T09:34:58;12.00;82.90
61021;DHT22;66055;43.496;3.710;2022-12-29T09:37:24;12.10;82.80
61021;DHT22;66055;43.496;3.710;2022-12-29T09:39:49;12.10;82.90
61021;DHT22;66055;43.496;3.710;2022-12-29T09:42:41;12.10;82.50
61021;DHT22;66055;43.496;3.710;2022-12-29T09:45:10;12.20;82.30
61021;DHT22;66055;43.496;3.710;2022-12-29T09:47:37;12.30;82.10
61021;DHT22;66055;43.496;3.710;2022-12-29T09:50:05;12.40;82.10
61021;DHT22;66055;43.496;3.710;2022-12-29T09:52:50;12.50;81.40
61021;DHT22;66055;43.496;3.710;2022-12-29T09:55:21;12.70;80.80
61021;DHT22;66055;43.496;3.710;2022-12-29T09:57:54;12.60;80.10
61021;DHT22;66055;43.496;3.710;2022-12-29T10:00:26;12.60;80.90
61021;DHT22;66055;43.496;3.710;2022-12-29T10:02:59;12.70;80.70
61021;DHT22;66055;43.496;3.710;2022-12-29T10:08:55;12.90;80.20
61021;DHT22;66055;43.496;3.710;2022-12-29T10:25:19;13.10;78.30
61021;DHT22;66055;43.496;3.710;2022-12-29T10:27:50;12.90;79.20
61021;DHT22;66055;43.496;3.710;2022-12-29T10:30:17;12.80;79.70
61021;DHT22;66055;43.496;3.710;2022-12-29T10:32:58;12.80;80.10
61021;DHT22;66055;43.496;3.710;2022-12-29T10:35:38;12.70;80.40
61021;DHT22;66055;43.496;3.710;2022-12-29T10:38:29;12.60;80.10
61021;DHT22;66055;43.496;3.710;2022-12-29T10:44:03;12.70;80.40
61021;DHT22;66055;43.496;3.710;2022-12-29T10:46:33;12.70;80.10
61021;DHT22;66055;43.496;3.710;2022-12-29T10:49:00;12.70;80.30
61021;DHT22;66055;43.496;3.710;2022-12-29T10:51:47;12.80;80.20
61021;DHT22;66055;43.496;3.710;2022-12-29T10:54:22;12.90;79.90
61021;DHT22;66055;43.496;3.710;2022-12-29T10:57:00;13.00;80.30
61021;DHT22;66055;43.496;3.710;2022-12-29T10:59:30;13.10;80.30
61021;DHT22;66055;43.496;3.710;2022-12-29T11:07:06;13.40;79.50
61021;DHT22;66055;43.496;3.710;2022-12-29T11:09:35;13.50;79.10
61021;DHT22;66055;43.496;3.710;2022-12-29T11:12:23;13.60;78.80
61021;DHT22;66055;43.496;3.710;2022-12-29T11:17:47;13.80;77.90
61021;DHT22;66055;43.496;3.710;2022-12-29T11:20:28;14.00;77.50
61021;DHT22;66055;43.496;3.710;2022-12-29T11:22:54;14.30;76.60
61021;DHT22;66055;43.496;3.710;2022-12-29T11:25:23;14.30;76.10
61021;DHT22;66055;43.496;3.710;2022-12-29T11:28:03;14.30;76.40
61021;DHT22;66055;43.496;3.710;2022-12-29T11:30:37;14.40;76.30
61021;DHT22;66055;43.496;3.710;2022-12-29T11:33:03;14.40;76.60
61021;DHT22;66055;43.496;3.710;2022-12-29T11:35:41;14.30;76.60
61021;DHT22;66055;43.496;3.710;2022-12-29T11:38:21;14.20;76.70
61021;DHT22;66055;43.496;3.710;2022-12-29T11:40:48;14.20;76.70
61021;DHT22;66055;43.496;3.710;2022-12-29T11:43:36;14.20;76.50
61021;DHT22;66055;43.496;3.710;2022-12-29T11:46:04;14.10;77.00
61021;DHT22;66055;43.496;3.710;2022-12-29T11:48:38;14.00;77.60
61021;DHT22;66055;43.496;3.710;2022-12-29T11:51:06;14.00;78.10
61021;DHT22;66055;43.496;3.710;2022-12-29T11:56:15;14.00;77.20
61021;DHT22;66055;43.496;3.710;2022-12-29T11:58:41;14.00;77.50
61021;DHT22;66055;43.496;3.710;2022-12-29T12:03:36;14.00;76.80
61021;DHT22;66055;43.496;3.710;2022-12-29T12:06:03;13.90;77.90
61021;DHT22;66055;43.496;3.710;2022-12-29T12:08:44;13.90;77.90
61021;DHT22;66055;43.496;3.710;2022-12-29T12:11:20;13.90;78.50
61021;DHT22;66055;43.496;3.710;2022-12-29T12:16:28;14.00;78.20
61021;DHT22;66055;43.496;3.710;2022-12-29T12:19:14;13.90;77.70
61021;DHT22;66055;43.496;3.710;2022-12-29T12:21:47;13.80;78.50
61021;DHT22;66055;43.496;3.710;2022-12-29T12:27:28;14.00;77.80
61021;DHT22;66055;43.496;3.710;2022-12-29T12:30:20;14.00;78.00
61021;DHT22;66055;43.496;3.710;2022-12-29T12:35:38;14.20;77.70
61021;DHT22;66055;43.496;3.710;2022-12-29T12:41:25;14.20;77.10
61021;DHT22;66055;43.496;3.710;2022-12-29T12:50:02;14.30;77.30
61021;DHT22;66055;43.496;3.710;2022-12-29T13:09:31;14.70;75.60
61021;DHT22;66055;43.496;3.710;2022-12-29T13:17:39;14.80;75.60
61021;DHT22;66055;43.496;3.710;2022-12-29T13:21:06;14.70;75.50
61021;DHT22;66055;43.496;3.710;2022-12-29T13:29:03;14.50;76.10
61021;DHT22;66055;43.496;3.710;2022-12-29T13:31:46;14.50;76.90
61021;DHT22;66055;43.496;3.710;2022-12-29T13:34:25;14.40;77.10
61021;DHT22;66055;43.496;3.710;2022-12-29T13:36:59;14.40;76.70
61021;DHT22;66055;43.496;3.710;2022-12-29T13:39:32;14.40;76.60
61021;DHT22;66055;43.496;3.710;2022-12-29T13:41:58;14.40;77.10
61021;DHT22;66055;43.496;3.710;2022-12-29T13:47:01;14.30;78.10
61021;DHT22;66055;43.496;3.710;2022-12-29T13:49:29;14.20;78.10
61021;DHT22;66055;43.496;3.710;2022-12-29T13:51:58;14.20;78.10
61021;DHT22;66055;43.496;3.710;2022-12-29T13:54:34;14.10;77.80
61021;DHT22;66055;43.496;3.710;2022-12-29T13:57:05;14.20;78.60
61021;DHT22;66055;43.496;3.710;2022-12-29T13:59:52;14.20;78.20
61021;DHT22;66055;43.496;3.710;2022-12-29T14:04:57;14.20;78.10
61021;DHT22;66055;43.496;3.710;2022-12-29T14:07:23;14.20;78.60
61021;DHT22;66055;43.496;3.710;2022-12-29T14:09:53;14.10;78.20
61021;DHT22;66055;43.496;3.710;2022-12-29T14:12:40;14.10;78.70
61021;DHT22;66055;43.496;3.710;2022-12-29T14:17:35;14.10;78.80
61021;DHT22;66055;43.496;3.710;2022-12-29T14:20:03;14.00;77.80
61021;DHT22;66055;43.496;3.710;2022-12-29T14:22:29;14.00;78.00
61021;DHT22;66055;43.496;3.710;2022-12-29T14:24:55;14.00;78.60
61021;DHT22;66055;43.496;3.710;2022-12-29T14:29:50;14.10;78.00
61021;DHT22;66055;43.496;3.710;2022-12-29T14:35:01;14.10;77.00
61021;DHT22;66055;43.496;3.710;2022-12-29T14:37:46;14.10;77.20
61021;DHT22;66055;43.496;3.710;2022-12-29T14:40:27;14.10;77.80
61021;DHT22;66055;43.496;3.710;2022-12-29T14:42:55;14.10;76.50
61021;DHT22;66055;43.496;3.710;2022-12-29T14:47:51;14.10;77.90
61021;DHT22;66055;43.496;3.710;2022-12-29T14:52:59;14.00;78.20
61021;DHT22;66055;43.496;3.710;2022-12-29T14:55:47;14.00;78.80
61021;DHT22;66055;43.496;3.710;2022-12-29T14:58:38;13.90;77.20
61021;DHT22;66055;43.496;3.710;2022-12-29T15:01:24;13.80;76.90
61021;DHT22;66055;43.496;3.710;2022-12-29T15:03:54;13.80;77.70
61021;DHT22;66055;43.496;3.710;2022-12-29T15:06:23;13.70;77.10
61021;DHT22;66055;43.496;3.710;2022-12-29T15:11:48;13.60;77.10
61021;DHT22;66055;43.496;3.710;2022-12-29T15:16:53;13.60;78.90
61021;DHT22;66055;43.496;3.710;2022-12-29T15:19:23;13.50;78.50
61021;DHT22;66055;43.496;3.710;2022-12-29T15:21:49;13.40;78.10
61021;DHT22;66055;43.496;3.710;2022-12-29T15:24:16;13.40;78.50
61021;DHT22;66055;43.496;3.710;2022-12-29T15:26:46;13.30;80.10
61021;DHT22;66055;43.496;3.710;2022-12-29T15:32:23;13.30;80.10
61021;DHT22;66055;43.496;3.710;2022-12-29T15:34:57;13.20;80.40
61021;DHT22;66055;43.496;3.710;2022-12-29T15:37:33;13.20;79.10
61021;DHT22;66055;43.496;3.710;2022-12-29T15:40:01;13.20;80.20
61021;DHT22;66055;43.496;3.710;2022-12-29T15:45:32;13.10;80.10
61021;DHT22;66055;43.496;3.710;2022-12-29T15:47:59;13.10;80.10
61021;DHT22;66055;43.496;3.710;2022-12-29T15:50:30;13.10;80.20
61021;DHT22;66055;43.496;3.710;2022-12-29T15:52:57;13.00;80.00
61021;DHT22;66055;43.496;3.710;2022-12-29T15:55:31;13.00;80.70
61021;DHT22;66055;43.496;3.710;2022-12-29T15:58:00;12.90;80.90
61021;DHT22;66055;43.496;3.710;2022-12-29T16:00:32;12.90;81.40
61021;DHT22;66055;43.496;3.710;2022-12-29T16:03:00;12.90;81.10
61021;DHT22;66055;43.496;3.710;2022-12-29T16:05:34;12.80;81.50
61021;DHT22;66055;43.496;3.710;2022-12-29T16:08:01;12.80;81.80
61021;DHT22;66055;43.496;3.710;2022-12-29T16:10:37;12.70;82.10
61021;DHT22;66055;43.496;3.710;2022-12-29T16:13:28;12.70;82.70
61021;DHT22;66055;43.496;3.710;2022-12-29T16:16:02;12.60;81.70
61021;DHT22;66055;43.496;3.710;2022-12-29T16:18:34;12.60;81.60
61021;DHT22;66055;43.496;3.710;2022-12-29T16:21:02;12.60;81.60
61021;DHT22;66055;43.496;3.710;2022-12-29T16:23:30;12.60;81.50
61021;DHT22;66055;43.496;3.710;2022-12-29T16:25:56;12.60;81.60
61021;DHT22;66055;43.496;3.710;2022-12-29T16:28:38;12.60;82.50
61021;DHT22;66055;43.496;3.710;2022-12-29T16:31:20;12.60;82.10
61021;DHT22;66055;43.496;3.710;2022-12-29T16:33:52;12.60;82.40
61021;DHT22;66055;43.496;3.710;2022-12-29T16:39:15;12.60;82.70
61021;DHT22;66055;43.496;3.710;2022-12-29T16:41:44;12.60;82.60
61021;DHT22;66055;43.496;3.710;2022-12-29T16:44:25;12.60;83.00
61021;DHT22;66055;43.496;3.710;2022-12-29T16:49:24;12.60;83.60
61021;DHT22;66055;43.496;3.710;2022-12-29T16:51:51;12.60;82.90
61021;DHT22;66055;43.496;3.710;2022-12-29T16:54:55;12.60;82.80
61021;DHT22;66055;43.496;3.710;2022-12-29T16:57:30;12.60;82.40
61021;DHT22;66055;43.496;3.710;2022-12-29T17:00:00;12.60;83.30
61021;DHT22;66055;43.496;3.710;2022-12-29T17:02:28;12.60;83.00
61021;DHT22;66055;43.496;3.710;2022-12-29T17:04:54;12.50;82.40
61021;DHT22;66055;43.496;3.710;2022-12-29T17:07:23;12.50;83.00
61021;DHT22;66055;43.496;3.710;2022-12-29T17:09:49;12.50;83.20
61021;DHT22;66055;43.496;3.710;2022-12-29T17:12:22;12.50;83.40
61021;DHT22;66055;43.496;3.710;2022-12-29T17:14:55;12.50;82.90
61021;DHT22;66055;43.496;3.710;2022-12-29T17:17:33;12.50;83.00
61021;DHT22;66055;43.496;3.710;2022-12-29T17:20:03;12.50;83.40
61021;DHT22;66055;43.496;3.710;2022-12-29T17:22:30;12.50;83.10
61021;DHT22;66055;43.496;3.710;2022-12-29T17:24:58;12.50;83.20
61021;DHT22;66055;43.496;3.710;2022-12-29T17:27:31;12.50;83.10
61021;DHT22;66055;43.496;3.710;2022-12-29T17:30:13;12.40;83.00
61021;DHT22;66055;43.496;3.710;2022-12-29T17:32:45;12.40;83.20
61021;DHT22;66055;43.496;3.710;2022-12-29T17:35:14;12.40;83.70
61021;DHT22;66055;43.496;3.710;2022-12-29T17:37:40;12.30;83.70
61021;DHT22;66055;43.496;3.710;2022-12-29T17:40:14;12.30;83.70
61021;DHT22;66055;43.496;3.710;2022-12-29T17:42:46;12.20;83.50
61021;DHT22;66055;43.496;3.710;2022-12-29T17:47:39;12.20;84.00
61021;DHT22;66055;43.496;3.710;2022-12-29T17:50:08;12.20;83.90
61021;DHT22;66055;43.496;3.710;2022-12-29T17:52:33;12.20;84.20
61021;DHT22;66055;43.496;3.710;2022-12-29T17:54:59;12.10;83.60
61021;DHT22;66055;43.496;3.710;2022-12-29T17:57:25;12.10;84.20
61021;DHT22;66055;43.496;3.710;2022-12-29T17:59:51;12.00;84.10
61021;DHT22;66055;43.496;3.710;2022-12-29T18:02:28;12.00;83.90
61021;DHT22;66055;43.496;3.710;2022-12-29T18:04:55;12.00;84.30
61021;DHT22;66055;43.496;3.710;2022-12-29T18:07:22;12.00;84.30
61021;DHT22;66055;43.496;3.710;2022-12-29T18:09:48;12.00;84.20
61021;DHT22;66055;43.496;3.710;2022-12-29T18:12:28;11.90;84.10
61021;DHT22;66055;43.496;3.710;2022-12-29T18:14:54;12.00;84.90
61021;DHT22;66055;43.496;3.710;2022-12-29T18:17:20;11.90;85.00
61021;DHT22;66055;43.496;3.710;2022-12-29T18:19:46;11.90;84.90
61021;DHT22;66055;43.496;3.710;2022-12-29T18:22:12;11.80;83.80
61021;DHT22;66055;43.496;3.710;2022-12-29T18:24:37;11.80;84.30
61021;DHT22;66055;43.496;3.710;2022-12-29T18:27:12;11.70;84.40
61021;DHT22;66055;43.496;3.710;2022-12-29T18:29:39;11.70;84.30